sensor_id;sensor_type;location;lat;lon;timestamp;P1;durP1;ratioP1;P2;durP2;ratioP2
1613;SDS011;800;48.824;9.346;2023-04-25T00:01:39;2.90;;;2.33;;
1613;SDS011;800;48.824;9.346;2023-04-25T00:04:05;2.47;;;1.97;;
1613;SDS011;800;48.824;9.346;2023-04-25T00:06:32;2.20;;;1.77;;
1613;SDS011;800;48.824;9.346;2023-04-25T00:09:01;1.87;;;1.73;;
1613;SDS011;800;48.824;9.346;2023-04-25T00:11:28;6.40;;;1.97;;
1613;SDS011;800;48.824;9.346;2023-04-25T00:13:55;2.67;;;1.67;;
1613;SDS011;800;48.824;9.346;2023-04-25T00:16:22;2.10;;;1.87;;
1613;SDS011;800;48.824;9.346;2023-04-25T00:18:48;4.40;;;1.93;;
1613;SDS011;800;48.824;9.346;2023-04-25T00:21:17;2.67;;;1.90;;
1613;SDS011;800;48.824;9.346;2023-04-25T00:23:44;2.20;;;2.10;;
1613;SDS011;800;48.824;9.346;2023-04-25T00:26:10;4.80;;;2.23;;
1613;SDS011;800;48.824;9.346;2023-04-25T00:28:36;1.73;;;1.57;;
1613;SDS011;800;48.824;9.346;2023-04-25T00:31:02;3.20;;;1.87;;
1613;SDS011;800;48.824;9.346;2023-04-25T00:33:28;2.17;;;1.97;;
1613;SDS011;800;48.824;9.346;2023-04-25T00:35:55;1.77;;;1.67;;
1613;SDS011;800;48.824;9.346;2023-04-25T00:38:20;1.50;;;1.40;;
1613;SDS011;800;48.824;9.346;2023-04-25T00:40:46;1.73;;;1.60;;
1613;SDS011;800;48.824;9.346;2023-04-25T00:43:12;1.87;;;1.67;;
1613;SDS011;800;48.824;9.346;2023-04-25T00:45:38;1.57;;;1.47;;
1613;SDS011;800;48.824;9.346;2023-04-25T00:48:04;2.13;;;2.00;;
1613;SDS011;800;48.824;9.346;2023-04-25T00:50:30;1.70;;;1.60;;
1613;SDS011;800;48.824;9.346;2023-04-25T00:52:59;2.07;;;1.87;;
1613;SDS011;800;48.824;9.346;2023-04-25T00:55:25;2.40;;;1.87;;
1613;SDS011;800;48.824;9.346;2023-04-25T00:57:51;7.13;;;2.53;;
1613;SDS011;800;48.824;9.346;2023-04-25T01:00:17;3.00;;;1.67;;
1613;SDS011;800;48.824;9.346;2023-04-25T01:02:43;2.20;;;2.00;;
1613;SDS011;800;48.824;9.346;2023-04-25T01:05:09;2.20;;;2.00;;
1613;SDS011;800;48.824;9.346;2023-04-25T01:07:35;2.23;;;2.00;;
1613;SDS011;800;48.824;9.346;2023-04-25T01:10:01;2.27;;;1.83;;
1613;SDS011;800;48.824;9.346;2023-04-25T01:12:27;1.80;;;1.57;;
1613;SDS011;800;48.824;9.346;2023-04-25T01:14:53;2.40;;;1.87;;
1613;SDS011;800;48.824;9.346;2023-04-25T01:17:19;1.97;;;1.87;;
1613;SDS011;800;48.824;9.346;2023-04-25T01:19:46;2.10;;;1.70;;
1613;SDS011;800;48.824;9.346;2023-04-25T01:22:13;2.00;;;1.90;;
1613;SDS011;800;48.824;9.346;2023-04-25T01:24:39;2.57;;;2.20;;
1613;SDS011;800;48.824;9.346;2023-04-25T01:27:05;2.33;;;2.10;;
1613;SDS011;800;48.824;9.346;2023-04-25T01:29:33;2.50;;;2.00;;
1613;SDS011;800;48.824;9.346;2023-04-25T01:32:00;3.10;;;2.00;;
1613;SDS011;800;48.824;9.346;2023-04-25T01:34:26;1.57;;;1.43;;
1613;SDS011;800;48.824;9.346;2023-04-25T01:36:52;2.30;;;2.10;;
1613;SDS011;800;48.824;9.346;2023-04-25T01:39:18;3.10;;;2.20;;
1613;SDS011;800;48.824;9.346;2023-04-25T01:41:47;1.73;;;1.50;;
1613;SDS011;800;48.824;9.346;2023-04-25T01:44:13;2.97;;;2.20;;
1613;SDS011;800;48.824;9.346;2023-04-25T01:46:40;1.80;;;1.70;;
1613;SDS011;800;48.824;9.346;2023-04-25T01:49:05;1.80;;;1.70;;
1613;SDS011;800;48.824;9.346;2023-04-25T01:51:31;2.10;;;1.90;;
1613;SDS011;800;48.824;9.346;2023-04-25T01:53:57;4.00;;;1.63;;
1613;SDS011;800;48.824;9.346;2023-04-25T01:56:23;2.33;;;1.90;;
1613;SDS011;800;48.824;9.346;2023-04-25T01:58:49;3.00;;;2.40;;
1613;SDS011;800;48.824;9.346;2023-04-25T02:01:15;2.90;;;2.30;;
1613;SDS011;800;48.824;9.346;2023-04-25T02:03:41;2.00;;;1.90;;
1613;SDS011;800;48.824;9.346;2023-04-25T02:06:08;2.63;;;2.00;;
1613;SDS011;800;48.824;9.346;2023-04-25T02:08:33;3.50;;;2.30;;
1613;SDS011;800;48.824;9.346;2023-04-25T02:10:59;2.20;;;1.90;;
1613;SDS011;800;48.824;9.346;2023-04-25T02:13:24;3.17;;;1.77;;
1613;SDS011;800;48.824;9.346;2023-04-25T02:15:50;3.33;;;2.20;;
1613;SDS011;800;48.824;9.346;2023-04-25T02:18:15;6.33;;;2.60;;
1613;SDS011;800;48.824;9.346;2023-04-25T02:20:41;2.13;;;2.03;;
1613;SDS011;800;48.824;9.346;2023-04-25T02:23:07;2.73;;;1.90;;
1613;SDS011;800;48.824;9.346;2023-04-25T02:25:33;2.90;;;2.23;;
1613;SDS011;800;48.824;9.346;2023-04-25T02:27:59;2.40;;;1.90;;
1613;SDS011;800;48.824;9.346;2023-04-25T02:30:24;2.57;;;2.20;;
1613;SDS011;800;48.824;9.346;2023-04-25T02:32:50;5.47;;;2.50;;
1613;SDS011;800;48.824;9.346;2023-04-25T02:35:16;2.17;;;1.97;;
1613;SDS011;800;48.824;9.346;2023-04-25T02:37:41;3.77;;;2.33;;
1613;SDS011;800;48.824;9.346;2023-04-25T02:40:07;2.77;;;2.57;;
1613;SDS011;800;48.824;9.346;2023-04-25T02:42:33;3.77;;;2.77;;
1613;SDS011;800;48.824;9.346;2023-04-25T02:44:59;3.80;;;2.60;;
1613;SDS011;800;48.824;9.346;2023-04-25T02:47:25;2.93;;;2.73;;
1613;SDS011;800;48.824;9.346;2023-04-25T02:49:51;2.23;;;2.13;;
1613;SDS011;800;48.824;9.346;2023-04-25T02:52:16;2.47;;;2.30;;
1613;SDS011;800;48.824;9.346;2023-04-25T02:54:42;2.83;;;2.40;;
1613;SDS011;800;48.824;9.346;2023-04-25T02:57:08;2.70;;;2.37;;
1613;SDS011;800;48.824;9.346;2023-04-25T02:59:33;3.27;;;2.60;;
1613;SDS011;800;48.824;9.346;2023-04-25T03:01:59;2.43;;;2.30;;
1613;SDS011;800;48.824;9.346;2023-04-25T03:04:25;2.87;;;2.67;;
1613;SDS011;800;48.824;9.346;2023-04-25T03:06:51;2.57;;;2.37;;
1613;SDS011;800;48.824;9.346;2023-04-25T03:09:17;2.60;;;2.23;;
1613;SDS011;800;48.824;9.346;2023-04-25T03:11:43;2.67;;;2.47;;
1613;SDS011;800;48.824;9.346;2023-04-25T03:14:09;3.90;;;2.63;;
1613;SDS011;800;48.824;9.346;2023-04-25T03:16:35;4.37;;;2.43;;
1613;SDS011;800;48.824;9.346;2023-04-25T03:19:01;4.30;;;2.70;;
1613;SDS011;800;48.824;9.346;2023-04-25T03:21:27;3.53;;;2.93;;
1613;SDS011;800;48.824;9.346;2023-04-25T03:23:53;2.50;;;2.33;;
1613;SDS011;800;48.824;9.346;2023-04-25T03:26:18;3.60;;;2.87;;
1613;SDS011;800;48.824;9.346;2023-04-25T03:28:44;3.50;;;2.60;;
1613;SDS011;800;48.824;9.346;2023-04-25T03:31:10;2.90;;;2.70;;
1613;SDS011;800;48.824;9.346;2023-04-25T03:33:35;6.43;;;3.10;;
1613;SDS011;800;48.824;9.346;2023-04-25T03:36:01;4.53;;;3.03;;
1613;SDS011;800;48.824;9.346;2023-04-25T03:38:27;3.50;;;3.20;;
1613;SDS011;800;48.824;9.346;2023-04-25T03:40:52;3.93;;;3.60;;
1613;SDS011;800;48.824;9.346;2023-04-25T03:43:18;3.07;;;2.60;;
1613;SDS011;800;48.824;9.346;2023-04-25T03:45:44;3.03;;;2.83;;
1613;SDS011;800;48.824;9.346;2023-04-25T03:48:10;3.90;;;2.87;;
1613;SDS011;800;48.824;9.346;2023-04-25T03:50:36;3.67;;;2.83;;
1613;SDS011;800;48.824;9.346;2023-04-25T03:53:02;3.70;;;3.30;;
1613;SDS011;800;48.824;9.346;2023-04-25T03:55:27;4.53;;;2.83;;
1613;SDS011;800;48.824;9.346;2023-04-25T03:57:53;2.90;;;2.70;;
1613;SDS011;800;48.824;9.346;2023-04-25T04:00:18;3.00;;;2.70;;
1613;SDS011;800;48.824;9.346;2023-04-25T04:02:44;6.90;;;3.07;;
1613;SDS011;800;48.824;9.346;2023-04-25T04:05:09;3.30;;;3.00;;
1613;SDS011;800;48.824;9.346;2023-04-25T04:07:35;2.40;;;2.20;;
1613;SDS011;800;48.824;9.346;2023-04-25T04:10:08;2.70;;;2.50;;
1613;SDS011;800;48.824;9.346;2023-04-25T04:12:34;5.40;;;2.50;;
1613;SDS011;800;48.824;9.346;2023-04-25T04:15:01;4.53;;;2.73;;
1613;SDS011;800;48.824;9.346;2023-04-25T04:17:28;2.40;;;2.30;;
1613;SDS011;800;48.824;9.346;2023-04-25T04:19:54;3.03;;;2.73;;
1613;SDS011;800;48.824;9.346;2023-04-25T04:22:20;4.57;;;2.47;;
1613;SDS011;800;48.824;9.346;2023-04-25T04:24:45;3.87;;;2.87;;
1613;SDS011;800;48.824;9.346;2023-04-25T04:27:12;2.77;;;2.47;;
1613;SDS011;800;48.824;9.346;2023-04-25T04:29:38;6.07;;;2.93;;
1613;SDS011;800;48.824;9.346;2023-04-25T04:32:04;4.47;;;2.70;;
1613;SDS011;800;48.824;9.346;2023-04-25T04:34:30;4.03;;;3.10;;
1613;SDS011;800;48.824;9.346;2023-04-25T04:36:56;3.03;;;2.70;;
1613;SDS011;800;48.824;9.346;2023-04-25T04:39:21;2.73;;;2.53;;
1613;SDS011;800;48.824;9.346;2023-04-25T04:41:47;2.80;;;2.60;;
1613;SDS011;800;48.824;9.346;2023-04-25T04:44:13;3.50;;;2.77;;
1613;SDS011;800;48.824;9.346;2023-04-25T04:46:39;3.13;;;2.83;;
1613;SDS011;800;48.824;9.346;2023-04-25T04:49:09;3.63;;;3.33;;
1613;SDS011;800;48.824;9.346;2023-04-25T04:51:35;3.30;;;2.80;;
1613;SDS011;800;48.824;9.346;2023-04-25T04:54:02;4.13;;;3.47;;
1613;SDS011;800;48.824;9.346;2023-04-25T04:56:28;3.83;;;3.20;;
1613;SDS011;800;48.824;9.346;2023-04-25T04:58:57;3.70;;;3.40;;
1613;SDS011;800;48.824;9.346;2023-04-25T05:01:23;2.90;;;2.70;;
1613;SDS011;800;48.824;9.346;2023-04-25T05:03:49;3.93;;;3.13;;
1613;SDS011;800;48.824;9.346;2023-04-25T05:06:16;3.20;;;2.90;;
1613;SDS011;800;48.824;9.346;2023-04-25T05:08:42;3.93;;;2.80;;
1613;SDS011;800;48.824;9.346;2023-04-25T05:11:07;2.57;;;2.37;;
1613;SDS011;800;48.824;9.346;2023-04-25T05:13:33;4.77;;;2.80;;
1613;SDS011;800;48.824;9.346;2023-04-25T05:15:58;5.20;;;3.00;;
1613;SDS011;800;48.824;9.346;2023-04-25T05:18:24;3.50;;;3.00;;
1613;SDS011;800;48.824;9.346;2023-04-25T05:20:50;3.73;;;3.03;;
1613;SDS011;800;48.824;9.346;2023-04-25T05:23:15;3.37;;;3.07;;
1613;SDS011;800;48.824;9.346;2023-04-25T05:25:41;4.93;;;3.80;;
1613;SDS011;800;48.824;9.346;2023-04-25T05:28:06;3.87;;;3.50;;
1613;SDS011;800;48.824;9.346;2023-04-25T05:30:32;4.67;;;3.07;;
1613;SDS011;800;48.824;9.346;2023-04-25T05:32:59;2.97;;;2.77;;
1613;SDS011;800;48.824;9.346;2023-04-25T05:35:25;3.30;;;3.00;;
1613;SDS011;800;48.824;9.346;2023-04-25T05:37:51;4.23;;;3.00;;
1613;SDS011;800;48.824;9.346;2023-04-25T05:40:16;3.63;;;3.10;;
1613;SDS011;800;48.824;9.346;2023-04-25T05:42:42;3.33;;;2.83;;
1613;SDS011;800;48.824;9.346;2023-04-25T05:45:08;3.47;;;2.93;;
1613;SDS011;800;48.824;9.346;2023-04-25T05:47:33;3.70;;;3.40;;
1613;SDS011;800;48.824;9.346;2023-04-25T05:49:59;9.00;;;5.03;;
1613;SDS011;800;48.824;9.346;2023-04-25T05:52:25;4.27;;;3.80;;
1613;SDS011;800;48.824;9.346;2023-04-25T05:54:50;4.13;;;3.70;;
1613;SDS011;800;48.824;9.346;2023-04-25T05:57:22;5.60;;;3.73;;
1613;SDS011;800;48.824;9.346;2023-04-25T05:59:49;3.83;;;3.53;;
1613;SDS011;800;48.824;9.346;2023-04-25T06:02:15;3.40;;;3.10;;
1613;SDS011;800;48.824;9.346;2023-04-25T06:04:41;4.77;;;3.43;;
1613;SDS011;800;48.824;9.346;2023-04-25T06:07:07;4.07;;;3.77;;
1613;SDS011;800;48.824;9.346;2023-04-25T06:09:32;5.10;;;3.67;;
1613;SDS011;800;48.824;9.346;2023-04-25T06:11:58;3.50;;;3.20;;
1613;SDS011;800;48.824;9.346;2023-04-25T06:14:24;4.07;;;3.67;;
1613;SDS011;800;48.824;9.346;2023-04-25T06:16:50;3.90;;;3.50;;
1613;SDS011;800;48.824;9.346;2023-04-25T06:19:15;4.10;;;3.77;;
1613;SDS011;800;48.824;9.346;2023-04-25T06:21:43;4.17;;;3.67;;
1613;SDS011;800;48.824;9.346;2023-04-25T06:24:09;4.30;;;3.50;;
1613;SDS011;800;48.824;9.346;2023-04-25T06:26:34;4.07;;;3.67;;
1613;SDS011;800;48.824;9.346;2023-04-25T06:29:00;4.43;;;3.53;;
1613;SDS011;800;48.824;9.346;2023-04-25T06:31:26;4.63;;;3.70;;
1613;SDS011;800;48.824;9.346;2023-04-25T06:33:51;3.77;;;3.43;;
1613;SDS011;800;48.824;9.346;2023-04-25T06:36:19;6.30;;;4.40;;
1613;SDS011;800;48.824;9.346;2023-04-25T06:38:49;4.17;;;3.77;;
1613;SDS011;800;48.824;9.346;2023-04-25T06:41:15;3.57;;;3.27;;
1613;SDS011;800;48.824;9.346;2023-04-25T06:43:41;3.23;;;2.93;;
1613;SDS011;800;48.824;9.346;2023-04-25T06:46:06;4.00;;;3.40;;
1613;SDS011;800;48.824;9.346;2023-04-25T06:48:32;4.20;;;3.80;;
1613;SDS011;800;48.824;9.346;2023-04-25T06:50:58;4.27;;;3.87;;
1613;SDS011;800;48.824;9.346;2023-04-25T06:53:23;4.10;;;3.70;;
1613;SDS011;800;48.824;9.346;2023-04-25T06:55:49;6.27;;;4.07;;
1613;SDS011;800;48.824;9.346;2023-04-25T06:58:15;4.10;;;3.80;;
1613;SDS011;800;48.824;9.346;2023-04-25T07:00:40;4.40;;;3.80;;
1613;SDS011;800;48.824;9.346;2023-04-25T07:03:06;4.43;;;4.03;;
1613;SDS011;800;48.824;9.346;2023-04-25T07:05:32;3.37;;;3.10;;
1613;SDS011;800;48.824;9.346;2023-04-25T07:07:58;3.73;;;3.30;;
1613;SDS011;800;48.824;9.346;2023-04-25T07:10:23;3.60;;;3.30;;
1613;SDS011;800;48.824;9.346;2023-04-25T07:12:50;4.33;;;3.97;;
1613;SDS011;800;48.824;9.346;2023-04-25T07:15:15;3.63;;;3.33;;
1613;SDS011;800;48.824;9.346;2023-04-25T07:17:41;3.70;;;3.40;;
1613;SDS011;800;48.824;9.346;2023-04-25T07:20:07;5.13;;;4.63;;
1613;SDS011;800;48.824;9.346;2023-04-25T07:22:34;4.07;;;3.67;;
1613;SDS011;800;48.824;9.346;2023-04-25T07:25:00;4.43;;;4.10;;
1613;SDS011;800;48.824;9.346;2023-04-25T07:27:26;4.60;;;4.30;;
1613;SDS011;800;48.824;9.346;2023-04-25T07:29:52;3.97;;;3.63;;
1613;SDS011;800;48.824;9.346;2023-04-25T07:32:17;3.40;;;3.10;;
1613;SDS011;800;48.824;9.346;2023-04-25T07:34:47;4.77;;;3.87;;
1613;SDS011;800;48.824;9.346;2023-04-25T07:37:13;5.43;;;4.03;;
1613;SDS011;800;48.824;9.346;2023-04-25T07:39:39;6.00;;;4.00;;
1613;SDS011;800;48.824;9.346;2023-04-25T07:42:05;4.80;;;4.37;;
1613;SDS011;800;48.824;9.346;2023-04-25T07:44:33;4.23;;;3.83;;
1613;SDS011;800;48.824;9.346;2023-04-25T07:47:03;4.40;;;3.70;;
1613;SDS011;800;48.824;9.346;2023-04-25T07:49:32;3.93;;;3.60;;
1613;SDS011;800;48.824;9.346;2023-04-25T07:51:59;4.87;;;3.83;;
1613;SDS011;800;48.824;9.346;2023-04-25T07:54:25;4.70;;;3.80;;
1613;SDS011;800;48.824;9.346;2023-04-25T07:56:51;4.67;;;3.83;;
1613;SDS011;800;48.824;9.346;2023-04-25T07:59:17;4.53;;;4.13;;
1613;SDS011;800;48.824;9.346;2023-04-25T08:01:42;3.37;;;2.93;;
1613;SDS011;800;48.824;9.346;2023-04-25T08:04:08;5.10;;;4.10;;
1613;SDS011;800;48.824;9.346;2023-04-25T08:06:33;3.90;;;3.60;;
1613;SDS011;800;48.824;9.346;2023-04-25T08:08:59;4.23;;;3.80;;
1613;SDS011;800;48.824;9.346;2023-04-25T08:11:25;4.47;;;4.13;;
1613;SDS011;800;48.824;9.346;2023-04-25T08:13:51;4.70;;;4.30;;
1613;SDS011;800;48.824;9.346;2023-04-25T08:16:16;4.57;;;4.17;;
1613;SDS011;800;48.824;9.346;2023-04-25T08:18:42;3.67;;;3.37;;
1613;SDS011;800;48.824;9.346;2023-04-25T08:21:07;4.90;;;4.50;;
1613;SDS011;800;48.824;9.346;2023-04-25T08:23:36;4.60;;;4.20;;
1613;SDS011;800;48.824;9.346;2023-04-25T08:26:02;4.73;;;4.33;;
1613;SDS011;800;48.824;9.346;2023-04-25T08:28:28;6.70;;;4.60;;
1613;SDS011;800;48.824;9.346;2023-04-25T08:30:53;5.50;;;5.00;;
1613;SDS011;800;48.824;9.346;2023-04-25T08:33:19;5.00;;;4.60;;
1613;SDS011;800;48.824;9.346;2023-04-25T08:35:45;6.73;;;4.60;;
1613;SDS011;800;48.824;9.346;2023-04-25T08:38:10;7.40;;;5.00;;
1613;SDS011;800;48.824;9.346;2023-04-25T08:40:37;5.80;;;5.30;;
1613;SDS011;800;48.824;9.346;2023-04-25T08:43:03;6.30;;;5.57;;
1613;SDS011;800;48.824;9.346;2023-04-25T08:45:36;8.17;;;6.77;;
1613;SDS011;800;48.824;9.346;2023-04-25T08:48:06;6.07;;;5.47;;
1613;SDS011;800;48.824;9.346;2023-04-25T08:50:35;7.50;;;6.03;;
1613;SDS011;800;48.824;9.346;2023-04-25T08:53:04;6.33;;;5.73;;
1613;SDS011;800;48.824;9.346;2023-04-25T08:55:36;7.27;;;6.10;;
1613;SDS011;800;48.824;9.346;2023-04-25T08:58:05;6.07;;;5.57;;
1613;SDS011;800;48.824;9.346;2023-04-25T09:00:31;10.03;;;6.80;;
1613;SDS011;800;48.824;9.346;2023-04-25T09:02:57;7.07;;;6.40;;
1613;SDS011;800;48.824;9.346;2023-04-25T09:05:23;6.30;;;5.67;;
1613;SDS011;800;48.824;9.346;2023-04-25T09:07:49;5.63;;;5.20;;
1613;SDS011;800;48.824;9.346;2023-04-25T09:10:15;6.17;;;5.67;;
1613;SDS011;800;48.824;9.346;2023-04-25T09:12:40;4.70;;;4.33;;
1613;SDS011;800;48.824;9.346;2023-04-25T09:15:08;3.97;;;3.63;;
1613;SDS011;800;48.824;9.346;2023-04-25T09:17:35;4.20;;;3.80;;
1613;SDS011;800;48.824;9.346;2023-04-25T09:20:08;4.93;;;4.53;;
1613;SDS011;800;48.824;9.346;2023-04-25T09:22:36;9.60;;;7.47;;
1613;SDS011;800;48.824;9.346;2023-04-25T09:25:11;6.43;;;5.83;;
1613;SDS011;800;48.824;9.346;2023-04-25T09:27:52;6.90;;;5.30;;
1613;SDS011;800;48.824;9.346;2023-04-25T09:30:27;6.20;;;5.60;;
1613;SDS011;800;48.824;9.346;2023-04-25T09:33:08;6.30;;;5.70;;
1613;SDS011;800;48.824;9.346;2023-04-25T09:35:38;8.67;;;7.60;;
1613;SDS011;800;48.824;9.346;2023-04-25T09:38:14;7.00;;;6.30;;
1613;SDS011;800;48.824;9.346;2023-04-25T09:40:46;8.40;;;5.70;;
1613;SDS011;800;48.824;9.346;2023-04-25T09:43:20;5.80;;;5.20;;
1613;SDS011;800;48.824;9.346;2023-04-25T09:45:47;5.97;;;5.33;;
1613;SDS011;800;48.824;9.346;2023-04-25T09:48:19;6.90;;;6.30;;
1613;SDS011;800;48.824;9.346;2023-04-25T09:53:34;6.40;;;5.77;;
1613;SDS011;800;48.824;9.346;2023-04-25T09:56:06;5.30;;;4.80;;
1613;SDS011;800;48.824;9.346;2023-04-25T09:58:33;4.97;;;4.47;;
1613;SDS011;800;48.824;9.346;2023-04-25T10:01:04;4.93;;;4.53;;
1613;SDS011;800;48.824;9.346;2023-04-25T10:03:33;5.37;;;4.87;;
1613;SDS011;800;48.824;9.346;2023-04-25T10:06:00;5.47;;;4.97;;
1613;SDS011;800;48.824;9.346;2023-04-25T10:08:31;6.57;;;5.23;;
1613;SDS011;800;48.824;9.346;2023-04-25T10:11:03;5.10;;;4.60;;
1613;SDS011;800;48.824;9.346;2023-04-25T10:13:30;3.97;;;3.67;;
1613;SDS011;800;48.824;9.346;2023-04-25T10:16:00;3.43;;;3.13;;
1613;SDS011;800;48.824;9.346;2023-04-25T10:18:28;3.43;;;2.93;;
1613;SDS011;800;48.824;9.346;2023-04-25T10:20:55;3.10;;;2.70;;
1613;SDS011;800;48.824;9.346;2023-04-25T10:23:22;3.27;;;2.97;;
1613;SDS011;800;48.824;9.346;2023-04-25T10:25:50;2.93;;;2.63;;
1613;SDS011;800;48.824;9.346;2023-04-25T10:28:17;3.83;;;3.53;;
1613;SDS011;800;48.824;9.346;2023-04-25T10:31:02;3.20;;;2.90;;
1613;SDS011;800;48.824;9.346;2023-04-25T10:33:36;3.33;;;3.03;;
1613;SDS011;800;48.824;9.346;2023-04-25T10:36:13;3.40;;;3.10;;
1613;SDS011;800;48.824;9.346;2023-04-25T10:38:46;3.47;;;3.17;;
1613;SDS011;800;48.824;9.346;2023-04-25T10:41:13;3.00;;;2.77;;
1613;SDS011;800;48.824;9.346;2023-04-25T10:43:48;3.13;;;2.50;;
1613;SDS011;800;48.824;9.346;2023-04-25T10:46:16;3.87;;;2.83;;
1613;SDS011;800;48.824;9.346;2023-04-25T10:48:50;4.17;;;3.77;;
1613;SDS011;800;48.824;9.346;2023-04-25T10:53:44;3.80;;;3.40;;
1613;SDS011;800;48.824;9.346;2023-04-25T10:56:17;3.63;;;3.33;;
1613;SDS011;800;48.824;9.346;2023-04-25T10:58:45;4.37;;;3.97;;
1613;SDS011;800;48.824;9.346;2023-04-25T11:01:12;3.43;;;3.13;;
1613;SDS011;800;48.824;9.346;2023-04-25T11:03:45;3.97;;;3.57;;
1613;SDS011;800;48.824;9.346;2023-04-25T11:06:18;3.93;;;3.50;;
1613;SDS011;800;48.824;9.346;2023-04-25T11:08:54;4.10;;;3.63;;
1613;SDS011;800;48.824;9.346;2023-04-25T11:11:20;4.57;;;3.60;;
1613;SDS011;800;48.824;9.346;2023-04-25T11:13:49;4.03;;;3.40;;
1613;SDS011;800;48.824;9.346;2023-04-25T11:16:15;5.10;;;4.07;;
1613;SDS011;800;48.824;9.346;2023-04-25T11:18:42;4.70;;;4.30;;
1613;SDS011;800;48.824;9.346;2023-04-25T11:21:08;4.10;;;3.80;;
1613;SDS011;800;48.824;9.346;2023-04-25T11:23:34;4.70;;;4.30;;
1613;SDS011;800;48.824;9.346;2023-04-25T11:26:00;4.30;;;3.90;;
1613;SDS011;800;48.824;9.346;2023-04-25T11:28:26;4.37;;;4.00;;
1613;SDS011;800;48.824;9.346;2023-04-25T11:30:52;4.10;;;3.70;;
1613;SDS011;800;48.824;9.346;2023-04-25T11:33:18;6.97;;;4.47;;
1613;SDS011;800;48.824;9.346;2023-04-25T11:35:49;5.20;;;4.70;;
1613;SDS011;800;48.824;9.346;2023-04-25T11:38:14;5.67;;;3.57;;
1613;SDS011;800;48.824;9.346;2023-04-25T11:40:40;5.07;;;4.67;;
1613;SDS011;800;48.824;9.346;2023-04-25T11:43:06;3.80;;;3.50;;
1613;SDS011;800;48.824;9.346;2023-04-25T11:45:32;4.00;;;3.70;;
1613;SDS011;800;48.824;9.346;2023-04-25T11:47:57;6.50;;;4.00;;
1613;SDS011;800;48.824;9.346;2023-04-25T11:50:23;3.60;;;3.30;;
1613;SDS011;800;48.824;9.346;2023-04-25T11:52:49;3.13;;;2.83;;
1613;SDS011;800;48.824;9.346;2023-04-25T11:55:16;3.10;;;2.80;;
1613;SDS011;800;48.824;9.346;2023-04-25T11:57:49;4.10;;;3.70;;
1613;SDS011;800;48.824;9.346;2023-04-25T12:00:17;3.73;;;3.40;;
1613;SDS011;800;48.824;9.346;2023-04-25T12:02:51;4.27;;;3.70;;
1613;SDS011;800;48.824;9.346;2023-04-25T12:05:24;5.50;;;3.50;;
1613;SDS011;800;48.824;9.346;2023-04-25T12:07:51;4.03;;;3.73;;
1613;SDS011;800;48.824;9.346;2023-04-25T12:10:17;4.07;;;3.77;;
1613;SDS011;800;48.824;9.346;2023-04-25T12:12:44;3.60;;;3.30;;
1613;SDS011;800;48.824;9.346;2023-04-25T12:15:12;4.13;;;3.73;;
1613;SDS011;800;48.824;9.346;2023-04-25T12:17:41;4.27;;;3.70;;
1613;SDS011;800;48.824;9.346;2023-04-25T12:20:10;3.00;;;2.70;;
1613;SDS011;800;48.824;9.346;2023-04-25T12:22:44;3.73;;;3.43;;
1613;SDS011;800;48.824;9.346;2023-04-25T12:25:12;4.50;;;3.77;;
1613;SDS011;800;48.824;9.346;2023-04-25T12:28:08;4.00;;;3.60;;
1613;SDS011;800;48.824;9.346;2023-04-25T12:33:24;5.20;;;4.70;;
1613;SDS011;800;48.824;9.346;2023-04-25T12:35:53;4.30;;;3.90;;
1613;SDS011;800;48.824;9.346;2023-04-25T12:38:30;4.70;;;4.00;;
1613;SDS011;800;48.824;9.346;2023-04-25T12:40:57;4.83;;;4.37;;
1613;SDS011;800;48.824;9.346;2023-04-25T12:43:23;5.33;;;4.80;;
1613;SDS011;800;48.824;9.346;2023-04-25T12:45:49;4.60;;;4.20;;
1613;SDS011;800;48.824;9.346;2023-04-25T12:48:17;6.20;;;5.43;;
1613;SDS011;800;48.824;9.346;2023-04-25T12:50:43;10.00;;;5.13;;
1613;SDS011;800;48.824;9.346;2023-04-25T12:53:09;5.50;;;3.93;;
1613;SDS011;800;48.824;9.346;2023-04-25T12:55:37;4.93;;;4.50;;
1613;SDS011;800;48.824;9.346;2023-04-25T12:58:03;6.17;;;5.13;;
1613;SDS011;800;48.824;9.346;2023-04-25T13:00:30;6.33;;;4.53;;
1613;SDS011;800;48.824;9.346;2023-04-25T13:03:19;5.73;;;5.13;;
1613;SDS011;800;48.824;9.346;2023-04-25T13:05:44;5.07;;;4.57;;
1613;SDS011;800;48.824;9.346;2023-04-25T13:08:10;6.80;;;5.07;;
1613;SDS011;800;48.824;9.346;2023-04-25T13:10:36;6.33;;;5.30;;
1613;SDS011;800;48.824;9.346;2023-04-25T13:13:03;6.07;;;5.30;;
1613;SDS011;800;48.824;9.346;2023-04-25T13:15:29;6.03;;;5.43;;
1613;SDS011;800;48.824;9.346;2023-04-25T13:17:55;6.77;;;5.63;;
1613;SDS011;800;48.824;9.346;2023-04-25T13:20:21;6.83;;;6.17;;
1613;SDS011;800;48.824;9.346;2023-04-25T13:22:47;7.43;;;5.40;;
1613;SDS011;800;48.824;9.346;2023-04-25T13:25:13;7.20;;;5.53;;
1613;SDS011;800;48.824;9.346;2023-04-25T13:27:38;6.73;;;5.60;;
1613;SDS011;800;48.824;9.346;2023-04-25T13:30:06;6.53;;;5.93;;
1613;SDS011;800;48.824;9.346;2023-04-25T13:32:35;7.60;;;6.73;;
1613;SDS011;800;48.824;9.346;2023-04-25T13:35:02;6.87;;;5.60;;
1613;SDS011;800;48.824;9.346;2023-04-25T13:37:29;6.17;;;5.43;;
1613;SDS011;800;48.824;9.346;2023-04-25T13:39:57;7.13;;;6.20;;
1613;SDS011;800;48.824;9.346;2023-04-25T13:42:24;6.70;;;6.10;;
1613;SDS011;800;48.824;9.346;2023-04-25T13:44:50;8.03;;;7.10;;
1613;SDS011;800;48.824;9.346;2023-04-25T13:47:15;6.87;;;5.80;;
1613;SDS011;800;48.824;9.346;2023-04-25T13:49:41;7.43;;;5.87;;
1613;SDS011;800;48.824;9.346;2023-04-25T13:52:06;6.63;;;6.03;;
1613;SDS011;800;48.824;9.346;2023-04-25T13:54:32;7.07;;;6.40;;
1613;SDS011;800;48.824;9.346;2023-04-25T13:56:58;7.40;;;6.80;;
1613;SDS011;800;48.824;9.346;2023-04-25T13:59:24;7.07;;;6.37;;
1613;SDS011;800;48.824;9.346;2023-04-25T14:01:50;8.57;;;6.90;;
1613;SDS011;800;48.824;9.346;2023-04-25T14:04:16;7.60;;;6.80;;
1613;SDS011;800;48.824;9.346;2023-04-25T14:06:42;8.63;;;6.37;;
1613;SDS011;800;48.824;9.346;2023-04-25T14:09:07;7.60;;;6.90;;
1613;SDS011;800;48.824;9.346;2023-04-25T14:11:36;8.20;;;7.40;;
1613;SDS011;800;48.824;9.346;2023-04-25T14:14:01;8.70;;;7.90;;
1613;SDS011;800;48.824;9.346;2023-04-25T14:16:27;9.23;;;8.33;;
1613;SDS011;800;48.824;9.346;2023-04-25T14:18:54;8.20;;;7.30;;
1613;SDS011;800;48.824;9.346;2023-04-25T14:21:20;9.50;;;8.10;;
1613;SDS011;800;48.824;9.346;2023-04-25T14:23:46;8.20;;;7.43;;
1613;SDS011;800;48.824;9.346;2023-04-25T14:26:12;9.73;;;7.33;;
1613;SDS011;800;48.824;9.346;2023-04-25T14:28:38;9.07;;;7.70;;
1613;SDS011;800;48.824;9.346;2023-04-25T14:31:03;10.03;;;8.50;;
1613;SDS011;800;48.824;9.346;2023-04-25T14:33:29;8.90;;;7.47;;
1613;SDS011;800;48.824;9.346;2023-04-25T14:35:55;10.60;;;7.47;;
1613;SDS011;800;48.824;9.346;2023-04-25T14:38:21;8.50;;;7.70;;
1613;SDS011;800;48.824;9.346;2023-04-25T14:40:48;8.83;;;7.67;;
1613;SDS011;800;48.824;9.346;2023-04-25T14:43:14;11.33;;;7.23;;
1613;SDS011;800;48.824;9.346;2023-04-25T14:45:40;7.67;;;6.97;;
1613;SDS011;800;48.824;9.346;2023-04-25T14:48:05;7.20;;;6.50;;
1613;SDS011;800;48.824;9.346;2023-04-25T14:50:31;7.57;;;6.87;;
1613;SDS011;800;48.824;9.346;2023-04-25T14:52:57;8.20;;;7.50;;
1613;SDS011;800;48.824;9.346;2023-04-25T14:55:25;7.50;;;6.57;;
1613;SDS011;800;48.824;9.346;2023-04-25T14:57:53;7.60;;;6.93;;
1613;SDS011;800;48.824;9.346;2023-04-25T15:00:20;8.00;;;6.70;;
1613;SDS011;800;48.824;9.346;2023-04-25T15:02:46;6.57;;;5.93;;
1613;SDS011;800;48.824;9.346;2023-04-25T15:05:13;6.50;;;5.90;;
1613;SDS011;800;48.824;9.346;2023-04-25T15:07:39;7.83;;;6.93;;
1613;SDS011;800;48.824;9.346;2023-04-25T15:10:05;5.93;;;5.40;;
1613;SDS011;800;48.824;9.346;2023-04-25T15:12:36;6.60;;;6.00;;
1613;SDS011;800;48.824;9.346;2023-04-25T15:15:02;10.03;;;6.57;;
1613;SDS011;800;48.824;9.346;2023-04-25T15:17:28;6.50;;;5.90;;
1613;SDS011;800;48.824;9.346;2023-04-25T15:19:56;5.77;;;5.27;;
1613;SDS011;800;48.824;9.346;2023-04-25T15:22:21;8.33;;;5.47;;
1613;SDS011;800;48.824;9.346;2023-04-25T15:24:47;6.90;;;6.20;;
1613;SDS011;800;48.824;9.346;2023-04-25T15:27:13;7.13;;;4.43;;
1613;SDS011;800;48.824;9.346;2023-04-25T15:29:38;9.57;;;5.37;;
1613;SDS011;800;48.824;9.346;2023-04-25T15:32:05;6.80;;;5.70;;
1613;SDS011;800;48.824;9.346;2023-04-25T15:34:31;6.83;;;5.50;;
1613;SDS011;800;48.824;9.346;2023-04-25T15:36:59;6.63;;;5.40;;